Time;durP1;ratioP1;P1;durP2;ratioP2;P2;SDS_P1;SDS_P2;PMS_P1;PMS_P2;Temp;Humidity;BMP_temperature;BMP_pressure;BME280_temperature;BME280_humidity;BME280_pressure;Samples;Min_cycle;Max_cycle;Signal;HPM_P1;HPM_P2
2022/03/19 00:01:51;;;;;;;18.08;4.38;;;3.50;99.90;;;;;;4994363;28;20050;-69
2022/03/19 00:04:16;;;;;;;15.40;4.25;;;3.40;99.90;;;;;;4995303;28;20125;-70
2022/03/19 00:06:45;;;;;;;20.35;4.50;;;3.40;99.90;;;;;;4977524;28;20054;-69
2022/03/19 00:09:10;;;;;;;20.80;5.07;;;3.40;99.90;;;;;;4995246;28;20089;-69
2022/03/19 00:11:36;;;;;;;18.65;4.10;;;3.40;99.90;;;;;;4994383;28;20082;-69
2022/03/19 00:14:02;;;;;;;18.38;4.97;;;3.30;99.90;;;;;;4989326;28;20045;-69
2022/03/19 00:16:28;;;;;;;17.02;3.95;;;3.30;99.90;;;;;;5014554;28;20458;-71
2022/03/19 00:18:53;;;;;;;15.45;3.58;;;3.30;99.90;;;;;;5014702;28;20107;-68
2022/03/19 00:21:19;;;;;;;18.45;3.85;;;3.30;99.90;;;;;;5017922;28;20034;-70
2022/03/19 00:23:46;;;;;;;21.45;4.38;;;3.40;99.90;;;;;;5014890;28;20053;-70
2022/03/19 00:26:12;;;;;;;17.98;4.13;;;3.40;99.90;;;;;;5001222;28;20054;-69
2022/03/19 00:28:40;;;;;;;13.40;3.75;;;3.40;99.90;;;;;;5001327;28;20129;-70
2022/03/19 00:31:06;;;;;;;20.17;4.13;;;3.40;99.90;;;;;;5017823;28;20053;-70
2022/03/19 00:33:32;;;;;;;20.50;3.95;;;3.30;99.90;;;;;;5018269;28;20053;-70
2022/03/19 00:35:58;;;;;;;16.90;4.05;;;3.30;99.90;;;;;;5001342;28;20078;-70
2022/03/19 00:38:23;;;;;;;20.15;3.95;;;3.30;99.90;;;;;;5018212;28;20502;-69
2022/03/19 00:40:51;;;;;;;13.75;3.65;;;3.30;99.90;;;;;;5000897;28;20054;-70
2022/03/19 00:43:20;;;;;;;19.27;3.47;;;3.20;99.90;;;;;;5015828;28;20184;-70
2022/03/19 00:45:47;;;;;;;16.08;3.22;;;3.20;99.90;;;;;;5017778;28;20042;-70
2022/03/19 00:48:13;;;;;;;15.10;3.55;;;3.20;99.90;;;;;;5018326;28;20046;-71
2022/03/19 00:50:38;;;;;;;18.58;3.80;;;3.20;99.90;;;;;;5000728;28;20488;-70
2022/03/19 00:53:04;;;;;;;16.80;3.78;;;3.20;99.90;;;;;;5000624;28;20050;-70
2022/03/19 00:55:29;;;;;;;15.93;4.18;;;3.20;99.90;;;;;;5017748;28;20041;-70
2022/03/19 00:57:55;;;;;;;21.60;4.07;;;3.30;99.90;;;;;;5000921;28;20470;-70
2022/03/19 01:00:24;;;;;;;17.40;3.40;;;3.10;99.90;;;;;;4997591;28;20042;-71
2022/03/19 01:02:51;;;;;;;13.88;3.50;;;3.10;99.90;;;;;;4981075;28;20109;-69
2022/03/19 01:05:17;;;;;;;17.73;4.25;;;3.10;99.90;;;;;;4980656;28;20125;-69
2022/03/19 01:07:48;;;;;;;18.85;3.28;;;3.00;99.90;;;;;;4997886;28;20112;-70
2022/03/19 01:10:15;;;;;;;19.65;4.18;;;3.00;99.90;;;;;;4997613;28;20057;-71
2022/03/19 01:12:41;;;;;;;14.43;3.75;;;3.00;99.90;;;;;;4998004;28;20150;-70
2022/03/19 01:15:08;;;;;;;16.98;4.57;;;2.90;99.90;;;;;;5017547;28;20041;-70
2022/03/19 01:17:34;;;;;;;19.70;4.10;;;2.90;99.90;;;;;;5017333;28;20049;-70
2022/03/19 01:20:01;;;;;;;16.70;3.60;;;2.80;99.90;;;;;;5017467;28;20081;-69
2022/03/19 01:22:28;;;;;;;20.85;3.53;;;2.80;99.90;;;;;;5016750;28;20466;-69
2022/03/19 01:24:54;;;;;;;23.30;3.53;;;2.80;99.90;;;;;;5000202;28;20125;-71
2022/03/19 01:27:20;;;;;;;14.32;3.72;;;2.80;99.90;;;;;;5016840;28;20042;-70
2022/03/19 01:29:46;;;;;;;14.18;3.35;;;2.80;99.90;;;;;;5017024;28;20459;-70
2022/03/19 01:32:12;;;;;;;16.45;3.70;;;2.80;99.90;;;;;;4998794;28;20355;-70
2022/03/19 01:34:37;;;;;;;22.05;4.10;;;2.80;99.90;;;;;;5016512;28;20045;-68
2022/03/19 01:37:03;;;;;;;12.68;3.20;;;2.70;99.90;;;;;;4984953;28;20047;-69
2022/03/19 01:39:29;;;;;;;17.17;3.75;;;2.70;99.90;;;;;;4997381;28;20053;-69
2022/03/19 01:41:54;;;;;;;21.48;3.88;;;2.70;99.90;;;;;;4997083;28;20419;-69
2022/03/19 01:44:21;;;;;;;21.48;4.15;;;3.00;99.90;;;;;;4997559;28;20498;-68
2022/03/19 01:47:03;;;;;;;20.73;3.75;;;2.70;99.90;;;;;;4997175;28;20058;-69
2022/03/19 01:49:30;;;;;;;16.77;3.85;;;2.60;99.90;;;;;;5000332;28;20058;-70
2022/03/19 01:51:56;;;;;;;18.98;3.72;;;2.60;99.90;;;;;;4997254;28;20046;-69
2022/03/19 01:54:28;;;;;;;23.65;4.85;;;2.60;99.90;;;;;;4996750;28;20057;-69
2022/03/19 01:56:57;;;;;;;20.00;4.05;;;2.70;99.90;;;;;;5000573;28;20045;-68
2022/03/19 01:59:26;;;;;;;26.48;4.35;;;2.70;99.90;;;;;;5005771;28;20064;-70
2022/03/19 02:01:53;;;;;;;16.98;4.70;;;2.70;99.90;;;;;;4996680;28;20074;-68
2022/03/19 02:04:21;;;;;;;25.63;4.50;;;2.70;99.90;;;;;;4996488;28;20450;-69
2022/03/19 02:06:47;;;;;;;21.58;4.18;;;2.60;99.90;;;;;;5015190;28;20062;-70
2022/03/19 02:09:13;;;;;;;14.85;3.67;;;2.60;99.90;;;;;;5016244;28;20074;-70
2022/03/19 02:11:39;;;;;;;23.50;4.45;;;2.60;99.90;;;;;;4999162;28;20069;-68
2022/03/19 02:14:05;;;;;;;16.80;4.07;;;2.60;99.90;;;;;;5016151;28;20046;-70
2022/03/19 02:16:30;;;;;;;17.73;4.90;;;2.60;99.90;;;;;;4982984;28;20477;-69
2022/03/19 02:19:00;;;;;;;24.58;4.68;;;2.60;99.90;;;;;;4989318;28;20386;-70
2022/03/19 02:21:25;;;;;;;18.25;4.28;;;2.70;99.90;;;;;;5015158;28;20041;-69
2022/03/19 02:26:46;;;;;;;17.10;4.53;;;2.70;99.90;;;;;;5015934;28;20081;-69
2022/03/19 02:29:12;;;;;;;17.77;4.03;;;2.80;99.90;;;;;;4998907;28;20057;-70
2022/03/19 02:31:42;;;;;;;19.80;5.15;;;2.80;99.90;;;;;;4999059;28;20061;-70
2022/03/19 02:34:08;;;;;;;18.50;5.47;;;3.00;99.90;;;;;;5015238;28;20049;-70
2022/03/19 02:36:40;;;;;;;26.30;4.78;;;3.00;99.90;;;;;;5004122;28;20125;-70
2022/03/19 02:39:17;;;;;;;20.40;5.30;;;3.00;99.90;;;;;;4978959;28;20085;-68
2022/03/19 02:41:44;;;;;;;20.02;4.97;;;3.10;99.90;;;;;;4996100;28;20073;-69
2022/03/19 02:44:11;;;;;;;21.60;5.35;;;3.20;99.90;;;;;;4996047;28;20046;-70
2022/03/19 02:46:41;;;;;;;21.15;4.82;;;3.10;99.90;;;;;;4996089;28;20046;-69
2022/03/19 02:49:07;;;;;;;18.08;4.60;;;3.10;99.90;;;;;;4978296;28;20042;-69
2022/03/19 02:51:37;;;;;;;14.02;4.70;;;3.20;99.90;;;;;;4995021;28;20054;-69
2022/03/19 02:54:08;;;;;;;23.38;5.10;;;3.70;99.90;;;;;;4996152;28;20409;-68
2022/03/19 02:56:35;;;;;;;22.88;5.63;;;3.60;99.90;;;;;;4996189;28;20061;-69
2022/03/19 02:59:17;;;;;;;21.45;5.47;;;3.10;99.90;;;;;;4978827;28;20050;-70
2022/03/19 03:01:44;;;;;;;21.73;4.60;;;3.10;99.90;;;;;;4995428;28;20061;-68
2022/03/19 03:04:09;;;;;;;23.02;5.63;;;3.00;99.90;;;;;;4995629;28;20043;-70
2022/03/19 03:06:37;;;;;;;18.70;5.15;;;3.00;99.90;;;;;;5008751;28;20101;-69
2022/03/19 03:09:06;;;;;;;14.88;5.20;;;3.00;99.90;;;;;;4979105;28;20072;-69
2022/03/19 03:11:32;;;;;;;20.50;5.20;;;3.00;99.90;;;;;;4978369;28;20053;-69
2022/03/19 03:13:59;;;;;;;16.45;5.35;;;2.80;99.90;;;;;;4978210;28;20058;-70
2022/03/19 03:16:28;;;;;;;16.55;5.00;;;2.80;99.90;;;;;;4979205;28;20411;-68
2022/03/19 03:19:01;;;;;;;19.52;5.40;;;2.70;99.90;;;;;;4995566;28;20391;-71
2022/03/19 03:21:27;;;;;;;17.00;4.85;;;2.60;99.90;;;;;;4995534;28;20072;-69
2022/03/19 03:23:54;;;;;;;18.20;5.40;;;2.60;99.90;;;;;;4978564;28;20104;-69
2022/03/19 03:26:20;;;;;;;20.27;5.20;;;2.60;99.90;;;;;;4995119;28;20046;-69
2022/03/19 03:28:45;;;;;;;25.58;5.18;;;2.50;99.90;;;;;;4978385;28;20491;-68
2022/03/19 03:31:11;;;;;;;21.08;6.38;;;2.50;99.90;;;;;;4978226;28;20475;-70
2022/03/19 03:33:37;;;;;;;24.25;5.38;;;2.40;99.90;;;;;;4962826;28;20098;-69
2022/03/19 03:36:03;;;;;;;20.80;5.70;;;2.40;99.90;;;;;;4983951;28;20515;-70
2022/03/19 03:38:28;;;;;;;22.40;5.50;;;2.30;99.90;;;;;;4997787;28;20482;-68
2022/03/19 03:40:54;;;;;;;20.80;5.80;;;2.30;99.90;;;;;;5014713;28;20037;-70
2022/03/19 03:43:20;;;;;;;18.08;5.85;;;2.30;99.90;;;;;;4997904;28;20459;-70
2022/03/19 03:45:45;;;;;;;20.08;5.30;;;2.20;99.90;;;;;;5014785;28;20386;-69
2022/03/19 03:48:11;;;;;;;21.60;5.50;;;2.20;99.90;;;;;;4997911;28;20466;-70
2022/03/19 03:50:37;;;;;;;23.38;6.63;;;2.20;99.90;;;;;;5014630;28;20092;-69
2022/03/19 03:53:04;;;;;;;22.73;6.20;;;2.10;99.90;;;;;;5015046;28;20513;-70
2022/03/19 03:55:31;;;;;;;20.27;6.88;;;2.10;99.90;;;;;;5017606;28;20038;-69
2022/03/19 03:57:57;;;;;;;25.13;6.05;;;2.10;99.90;;;;;;5001701;28;20117;-70
2022/03/19 04:00:23;;;;;;;15.27;5.57;;;2.10;99.90;;;;;;4998988;28;20133;-69
2022/03/19 04:02:48;;;;;;;19.80;6.03;;;2.00;99.90;;;;;;4965187;28;20059;-69
2022/03/19 04:05:14;;;;;;;23.70;6.47;;;2.00;99.90;;;;;;5004852;28;20077;-69
2022/03/19 04:07:39;;;;;;;25.92;6.70;;;2.00;99.90;;;;;;5018803;28;20061;-70
2022/03/19 04:10:06;;;;;;;18.70;6.43;;;2.00;99.90;;;;;;5018372;28;20076;-72
2022/03/19 04:12:31;;;;;;;19.63;6.10;;;2.00;99.90;;;;;;5001761;28;20045;-72
2022/03/19 04:14:57;;;;;;;22.17;7.10;;;1.90;99.90;;;;;;5000993;28;20481;-71
2022/03/19 04:17:22;;;;;;;18.98;6.35;;;1.90;99.90;;;;;;5018239;28;20042;-68
2022/03/19 04:19:48;;;;;;;24.45;6.65;;;1.90;99.90;;;;;;5000912;28;20056;-69
2022/03/19 04:22:13;;;;;;;26.65;7.65;;;1.90;99.90;;;;;;5018262;28;20060;-68
2022/03/19 04:24:39;;;;;;;20.55;6.38;;;1.90;99.90;;;;;;5000224;28;20066;-70
2022/03/19 04:27:05;;;;;;;24.20;6.53;;;1.90;99.90;;;;;;5001442;28;20125;-69
2022/03/19 04:29:30;;;;;;;21.50;7.90;;;1.80;99.90;;;;;;5000560;28;20056;-70
2022/03/19 04:31:56;;;;;;;25.50;8.88;;;1.90;99.90;;;;;;5000909;28;20046;-69
2022/03/19 04:34:22;;;;;;;25.38;7.80;;;1.90;99.90;;;;;;5013798;28;20038;-68
2022/03/19 04:36:47;;;;;;;20.75;8.90;;;1.90;99.90;;;;;;5015947;28;20045;-70
2022/03/19 04:39:13;;;;;;;23.13;7.38;;;2.00;99.90;;;;;;5000084;28;20054;-68
2022/03/19 04:41:39;;;;;;;33.47;8.43;;;1.90;99.90;;;;;;5009437;28;20045;-70
2022/03/19 04:44:08;;;;;;;22.23;8.60;;;1.90;99.90;;;;;;5017884;28;20122;-69
2022/03/19 04:46:35;;;;;;;18.92;7.40;;;1.90;99.90;;;;;;5018268;28;20402;-69
2022/03/19 04:49:01;;;;;;;23.83;7.63;;;2.00;99.90;;;;;;5017745;28;20050;-70
2022/03/19 04:51:32;;;;;;;25.08;9.07;;;1.90;99.90;;;;;;5000795;28;20046;-69
2022/03/19 04:53:58;;;;;;;22.85;8.32;;;2.00;99.90;;;;;;5002515;28;20332;-69
2022/03/19 04:56:25;;;;;;;25.30;8.60;;;2.00;99.90;;;;;;4980090;28;20046;-70
2022/03/19 04:58:53;;;;;;;24.80;9.63;;;2.10;99.90;;;;;;4981547;28;20049;-70
2022/03/19 05:01:18;;;;;;;21.90;8.98;;;1.90;99.90;;;;;;4997863;28;20054;-70
2022/03/19 05:03:44;;;;;;;22.85;8.82;;;1.90;99.90;;;;;;4998177;28;20047;-69
2022/03/19 05:06:10;;;;;;;27.45;9.90;;;1.90;99.90;;;;;;5003026;28;20050;-71
2022/03/19 05:08:35;;;;;;;22.45;8.90;;;2.00;99.90;;;;;;5017190;28;20054;-69
2022/03/19 05:11:13;;;;;;;32.05;9.63;;;2.10;99.90;;;;;;5017640;28;20088;-69
2022/03/19 05:13:40;;;;;;;27.77;9.85;;;2.10;99.90;;;;;;5017408;28;20068;-70
2022/03/19 05:16:06;;;;;;;29.65;10.38;;;2.10;99.90;;;;;;5017217;28;20124;-70
2022/03/19 05:18:32;;;;;;;26.45;9.35;;;2.20;99.90;;;;;;5017419;28;20054;-69
2022/03/19 05:20:58;;;;;;;27.83;9.68;;;2.30;99.90;;;;;;5017134;28;20073;-70
2022/03/19 05:23:24;;;;;;;26.30;9.75;;;2.40;99.90;;;;;;5000497;28;20082;-71
2022/03/19 05:25:50;;;;;;;27.70;9.98;;;2.40;99.90;;;;;;5017013;28;20057;-71
2022/03/19 05:28:16;;;;;;;34.67;10.27;;;2.40;99.90;;;;;;4996976;28;20050;-71
2022/03/19 05:30:41;;;;;;;25.33;9.75;;;2.50;99.90;;;;;;5017228;28;20053;-69
2022/03/19 05:33:07;;;;;;;27.13;9.80;;;2.50;99.90;;;;;;4999845;28;20419;-69
2022/03/19 05:35:34;;;;;;;25.00;9.50;;;2.50;99.90;;;;;;5001565;28;20043;-69
2022/03/19 05:37:59;;;;;;;24.67;10.48;;;2.50;99.90;;;;;;5004420;28;20083;-70
2022/03/19 05:40:26;;;;;;;25.52;9.10;;;2.50;99.90;;;;;;4999658;28;20115;-70
2022/03/19 05:42:52;;;;;;;24.13;9.85;;;2.50;99.90;;;;;;5016695;28;20038;-68
2022/03/19 05:45:20;;;;;;;26.00;9.30;;;2.50;99.90;;;;;;4999493;28;20129;-68
2022/03/19 05:47:45;;;;;;;27.30;10.23;;;2.50;99.90;;;;;;5016752;28;20045;-69
2022/03/19 05:50:12;;;;;;;22.00;9.80;;;2.50;99.90;;;;;;4999179;28;20508;-70
2022/03/19 05:52:38;;;;;;;26.27;9.48;;;2.50;99.90;;;;;;4999661;28;20116;-69
2022/03/19 05:55:04;;;;;;;23.75;9.48;;;2.60;99.90;;;;;;4999941;28;20108;-70
2022/03/19 05:57:29;;;;;;;28.52;9.68;;;2.60;99.90;;;;;;5000192;28;20058;-70
2022/03/19 05:59:55;;;;;;;26.83;10.02;;;2.60;99.90;;;;;;4997014;28;20050;-71
2022/03/19 06:02:20;;;;;;;29.38;10.07;;;2.60;99.90;;;;;;4996940;28;20089;-69
2022/03/19 06:04:46;;;;;;;19.55;9.77;;;2.70;99.90;;;;;;4978226;28;20057;-69
2022/03/19 06:07:11;;;;;;;24.02;9.48;;;2.70;99.90;;;;;;4998432;28;20363;-70
2022/03/19 06:09:37;;;;;;;24.02;9.68;;;2.70;99.90;;;;;;5016262;28;20057;-70
2022/03/19 06:12:03;;;;;;;33.78;10.82;;;2.60;99.90;;;;;;5016459;28;20048;-70
2022/03/19 06:14:28;;;;;;;30.30;10.90;;;2.80;99.90;;;;;;4996188;28;20383;-71
2022/03/19 06:16:54;;;;;;;23.77;10.50;;;2.80;99.90;;;;;;5015636;28;20104;-70
2022/03/19 06:19:20;;;;;;;23.17;10.50;;;2.90;99.90;;;;;;5014932;28;20052;-70
2022/03/19 06:21:46;;;;;;;28.20;11.02;;;3.00;99.90;;;;;;5016343;28;20359;-69
2022/03/19 06:24:11;;;;;;;27.08;10.57;;;3.30;99.90;;;;;;5014462;28;20072;-69
2022/03/19 06:26:37;;;;;;;26.05;11.18;;;3.00;99.90;;;;;;4996280;28;20038;-69
2022/03/19 06:29:03;;;;;;;27.00;11.10;;;3.00;99.90;;;;;;4996290;28;20080;-69
2022/03/19 06:31:29;;;;;;;26.50;11.43;;;3.10;99.90;;;;;;4979459;28;20046;-68
2022/03/19 06:33:54;;;;;;;29.13;10.73;;;3.10;99.90;;;;;;4980843;28;20426;-70
2022/03/19 06:39:06;;;;;;;24.02;10.63;;;3.20;99.90;;;;;;5015041;28;20474;-69
2022/03/19 06:41:32;;;;;;;35.00;10.43;;;3.20;99.90;;;;;;4998194;28;20045;-69
2022/03/19 06:43:58;;;;;;;23.30;9.82;;;3.30;99.90;;;;;;5015645;28;20068;-68
2022/03/19 06:46:24;;;;;;;28.48;9.52;;;3.40;99.90;;;;;;5015181;28;20113;-70
2022/03/19 06:48:50;;;;;;;19.75;10.30;;;3.40;99.90;;;;;;5012055;28;20048;-70
2022/03/19 06:51:17;;;;;;;24.45;10.45;;;3.50;99.90;;;;;;4998176;28;20117;-68
2022/03/19 06:53:44;;;;;;;30.27;10.25;;;3.60;99.90;;;;;;5015334;28;20054;-70
2022/03/19 06:56:09;;;;;;;21.05;9.10;;;3.70;99.90;;;;;;5012957;28;20129;-70
2022/03/19 06:58:36;;;;;;;23.58;9.70;;;3.80;99.90;;;;;;4978741;28;20196;-70
2022/03/19 07:01:02;;;;;;;19.08;8.15;;;3.90;99.90;;;;;;4995630;28;20050;-68
2022/03/19 07:03:28;;;;;;;22.45;8.13;;;4.00;99.90;;;;;;4978754;28;20124;-70
2022/03/19 07:05:54;;;;;;;20.33;8.20;;;4.10;99.90;;;;;;4986950;28;20111;-70
2022/03/19 07:08:20;;;;;;;21.58;8.25;;;4.30;99.90;;;;;;5014962;28;20045;-68
2022/03/19 07:10:45;;;;;;;23.90;9.30;;;4.40;99.90;;;;;;5015256;28;20061;-68
2022/03/19 07:13:11;;;;;;;23.38;8.73;;;4.50;99.90;;;;;;4997425;28;20049;-69
2022/03/19 07:15:37;;;;;;;19.58;8.70;;;4.60;99.90;;;;;;5015276;28;20120;-70
2022/03/19 07:18:04;;;;;;;20.33;8.57;;;4.70;99.90;;;;;;5014746;28;20042;-69
2022/03/19 07:20:31;;;;;;;27.65;8.15;;;4.80;99.90;;;;;;5014977;28;20045;-69
2022/03/19 07:23:02;;;;;;;25.35;10.05;;;4.90;99.90;;;;;;5015538;28;20034;-67
2022/03/19 07:25:35;;;;;;;15.88;7.72;;;5.00;99.90;;;;;;4999444;28;20042;-70
2022/03/19 07:28:10;;;;;;;25.67;8.13;;;5.10;99.90;;;;;;4993221;28;20048;-69
2022/03/19 07:30:36;;;;;;;21.77;8.90;;;5.20;99.90;;;;;;5014617;28;20146;-72
2022/03/19 07:33:03;;;;;;;21.95;7.13;;;5.30;99.90;;;;;;5014705;28;20128;-72
2022/03/19 07:35:29;;;;;;;22.70;7.32;;;5.40;99.90;;;;;;5013930;28;20080;-71
2022/03/19 07:37:57;;;;;;;16.63;6.07;;;5.40;99.90;;;;;;5015302;28;20477;-70
2022/03/19 07:43:10;;;;;;;22.25;6.65;;;5.60;99.90;;;;;;4982454;28;20054;-71
2022/03/19 07:45:37;;;;;;;18.83;6.57;;;5.70;99.90;;;;;;5000912;28;20034;-71
2022/03/19 07:48:03;;;;;;;17.15;6.63;;;5.70;99.90;;;;;;4990978;28;20038;-69
2022/03/19 07:50:29;;;;;;;17.40;5.93;;;5.80;99.90;;;;;;4995035;28;20382;-69
2022/03/19 07:52:55;;;;;;;24.77;6.43;;;5.90;99.90;;;;;;4994471;28;20042;-70
2022/03/19 07:55:21;;;;;;;16.73;6.05;;;6.00;99.90;;;;;;4994990;28;20399;-69
2022/03/19 07:57:47;;;;;;;18.45;6.00;;;6.10;99.90;;;;;;4995213;28;20108;-71
2022/03/19 08:00:13;;;;;;;14.05;5.65;;;6.10;99.90;;;;;;4997113;28;20054;-71
2022/03/19 08:02:40;;;;;;;17.65;6.68;;;6.20;99.90;;;;;;5012596;28;20438;-68
2022/03/19 08:05:06;;;;;;;18.75;5.70;;;6.20;99.90;;;;;;5000347;28;20111;-70
2022/03/19 08:07:32;;;;;;;23.58;6.18;;;6.30;99.90;;;;;;4995191;28;20054;-71
2022/03/19 08:09:58;;;;;;;20.60;6.25;;;6.50;99.90;;;;;;4977867;28;20583;-70
2022/03/19 08:12:24;;;;;;;19.77;6.20;;;6.50;99.90;;;;;;4993727;28;20069;-73
2022/03/19 08:14:49;;;;;;;17.27;5.65;;;6.60;99.90;;;;;;4976076;28;20038;-70
2022/03/19 08:17:15;;;;;;;17.15;5.18;;;6.60;99.90;;;;;;4994747;28;20072;-72
2022/03/19 08:19:44;;;;;;;21.42;5.53;;;6.70;99.90;;;;;;4994717;28;20363;-71
2022/03/19 08:22:09;;;;;;;22.30;5.78;;;6.80;99.90;;;;;;4994592;28;20042;-71
2022/03/19 08:24:36;;;;;;;15.13;5.15;;;6.90;99.90;;;;;;4992486;28;20034;-71
2022/03/19 08:27:01;;;;;;;20.02;5.00;;;6.90;99.90;;;;;;4994241;28;20459;-71
2022/03/19 08:29:27;;;;;;;19.67;6.05;;;7.00;99.90;;;;;;4977625;28;20077;-70
2022/03/19 08:31:54;;;;;;;22.55;6.38;;;7.00;99.90;;;;;;4984183;28;20101;-70
2022/03/19 08:34:20;;;;;;;21.67;6.50;;;7.10;99.90;;;;;;5006977;28;20430;-70
2022/03/19 08:36:45;;;;;;;17.98;6.22;;;7.20;99.90;;;;;;5014764;28;20050;-71
2022/03/19 08:41:55;;;;;;;16.83;5.40;;;7.30;99.90;;;;;;5000577;28;20053;-73
2022/03/19 08:44:21;;;;;;;17.35;5.07;;;7.40;99.90;;;;;;5001411;28;20424;-73
2022/03/19 08:46:47;;;;;;;17.75;5.50;;;7.50;99.90;;;;;;5018329;28;20056;-69
2022/03/19 08:49:13;;;;;;;26.40;7.32;;;7.50;99.90;;;;;;5018077;28;20093;-68
2022/03/19 08:51:41;;;;;;;15.73;4.85;;;7.60;99.90;;;;;;5000446;28;20344;-73
2022/03/19 08:54:15;;;;;;;16.40;5.22;;;7.70;99.90;;;;;;5017539;28;20046;-68
2022/03/19 08:56:43;;;;;;;13.00;4.65;;;7.70;99.90;;;;;;5001211;28;20113;-70
2022/03/19 08:59:09;;;;;;;16.25;4.30;;;7.80;99.90;;;;;;5017624;28;20203;-70
2022/03/19 09:01:36;;;;;;;22.92;7.80;;;7.90;99.90;;;;;;4999523;28;20072;-72
2022/03/19 09:04:01;;;;;;;16.58;4.90;;;8.00;99.90;;;;;;5017233;28;20053;-72
2022/03/19 09:06:27;;;;;;;14.57;5.40;;;8.00;99.90;;;;;;5017601;28;20343;-70
2022/03/19 09:08:52;;;;;;;15.07;4.57;;;8.00;99.90;;;;;;5014732;28;20050;-71
2022/03/19 09:11:19;;;;;;;13.63;4.53;;;8.10;99.90;;;;;;5017225;28;20421;-70
2022/03/19 09:13:46;;;;;;;12.02;4.40;;;8.20;99.90;;;;;;5017349;28;20124;-70
2022/03/19 09:16:12;;;;;;;14.70;4.72;;;8.30;99.90;;;;;;5000387;28;20410;-69
2022/03/19 09:18:37;;;;;;;15.43;4.20;;;8.30;99.90;;;;;;5017455;28;20045;-70
2022/03/19 09:21:03;;;;;;;21.33;5.25;;;8.40;99.90;;;;;;5000067;28;20056;-72
2022/03/19 09:23:29;;;;;;;15.85;5.18;;;8.40;99.90;;;;;;5016917;28;20112;-71
2022/03/19 09:25:54;;;;;;;18.45;4.78;;;8.50;99.90;;;;;;4999591;28;20104;-70
2022/03/19 09:28:21;;;;;;;19.83;4.75;;;8.50;99.90;;;;;;5017300;28;20042;-72
2022/03/19 09:30:46;;;;;;;12.48;3.55;;;8.50;99.90;;;;;;5017135;28;20053;-70
2022/03/19 09:33:12;;;;;;;11.02;3.22;;;8.60;99.90;;;;;;5001154;28;20046;-70
2022/03/19 09:35:38;;;;;;;13.30;3.53;;;8.60;99.90;;;;;;4980274;28;20375;-71
2022/03/19 09:38:04;;;;;;;12.25;3.10;;;8.60;99.90;;;;;;4997243;28;20093;-70
2022/03/19 09:40:29;;;;;;;12.10;3.70;;;8.70;99.90;;;;;;4997356;28;20438;-69
2022/03/19 09:42:57;;;;;;;11.18;3.75;;;8.80;99.90;;;;;;4997691;28;20038;-70
2022/03/19 09:45:24;;;;;;;15.80;3.58;;;8.80;99.90;;;;;;4997553;28;20358;-70
2022/03/19 09:47:51;;;;;;;14.55;3.92;;;8.90;99.90;;;;;;4997324;28;20463;-72
2022/03/19 09:50:17;;;;;;;12.07;3.67;;;9.00;99.90;;;;;;4980115;28;20046;-71
2022/03/19 09:52:43;;;;;;;15.82;4.38;;;9.10;99.90;;;;;;4996223;28;20050;-71
2022/03/19 09:55:26;;;;;;;17.63;4.22;;;9.10;99.90;;;;;;4980205;28;20050;-70
2022/03/19 09:57:52;;;;;;;14.32;3.33;;;9.20;99.90;;;;;;4980216;28;20046;-69
2022/03/19 10:00:22;;;;;;;17.23;5.35;;;9.30;99.90;;;;;;4997273;28;20076;-70
2022/03/19 10:02:59;;;;;;;13.98;4.38;;;9.30;99.90;;;;;;5008827;28;20050;-70
2022/03/19 10:10:57;;;;;;;12.98;3.80;;;9.50;99.90;;;;;;5016128;28;20069;-69
2022/03/19 10:13:25;;;;;;;12.30;3.55;;;9.50;99.90;;;;;;5016336;28;20462;-71
2022/03/19 10:15:51;;;;;;;13.75;3.92;;;9.70;99.90;;;;;;4982767;28;20038;-69
2022/03/19 10:18:17;;;;;;;11.32;3.40;;;9.80;99.90;;;;;;5016436;28;20064;-72
2022/03/19 10:20:43;;;;;;;13.68;3.50;;;9.70;99.90;;;;;;4998864;28;20050;-71
2022/03/19 10:23:09;;;;;;;12.63;3.75;;;9.70;99.90;;;;;;5016526;28;20038;-71
2022/03/19 10:25:35;;;;;;;15.10;3.35;;;9.70;99.90;;;;;;4982850;28;20077;-71
2022/03/19 10:28:11;;;;;;;12.93;3.55;;;9.80;99.90;;;;;;4998478;28;20046;-71
2022/03/19 10:30:40;;;;;;;12.13;3.75;;;9.90;99.90;;;;;;5016000;28;20042;-71
2022/03/19 10:33:10;;;;;;;9.80;3.53;;;10.00;99.90;;;;;;4989880;28;20041;-70
2022/03/19 10:35:39;;;;;;;8.70;3.38;;;10.00;99.90;;;;;;5016213;28;20049;-70
2022/03/19 10:38:19;;;;;;;9.13;2.97;;;10.20;99.90;;;;;;5016066;28;20140;-70
2022/03/19 10:40:47;;;;;;;12.48;3.75;;;10.10;99.90;;;;;;4998879;28;20076;-71
2022/03/19 10:43:16;;;;;;;9.35;3.35;;;10.10;99.90;;;;;;5011879;28;20045;-68
2022/03/19 10:45:47;;;;;;;9.77;3.00;;;10.20;99.90;;;;;;5015281;28;20471;-70
2022/03/19 10:48:18;;;;;;;10.18;2.80;;;10.20;99.90;;;;;;4981679;28;20057;-67
2022/03/19 10:50:43;;;;;;;10.63;3.55;;;10.30;99.90;;;;;;4994130;28;20125;-67
2022/03/19 10:53:09;;;;;;;10.00;3.42;;;10.30;99.90;;;;;;4995887;28;20077;-67
2022/03/19 10:55:35;;;;;;;10.20;2.97;;;10.40;99.90;;;;;;4995891;28;20073;-68
2022/03/19 10:58:01;;;;;;;8.35;2.88;;;10.50;99.90;;;;;;4978762;28;20042;-66
2022/03/19 11:00:28;;;;;;;10.57;3.28;;;10.50;98.70;;;;;;4995936;28;20523;-68
2022/03/19 11:03:00;;;;;;;9.95;3.20;;;10.60;98.50;;;;;;5008040;28;20049;-68
2022/03/19 11:05:32;;;;;;;8.88;2.95;;;10.60;99.80;;;;;;4997535;28;20426;-71
2022/03/19 11:08:01;;;;;;;9.20;3.20;;;10.60;99.90;;;;;;5000180;28;20129;-70
2022/03/19 11:10:28;;;;;;;8.48;2.65;;;10.70;99.90;;;;;;4995318;28;20049;-72
2022/03/19 11:12:58;;;;;;;10.18;2.78;;;10.80;99.60;;;;;;4995279;28;20042;-70
2022/03/19 11:15:27;;;;;;;9.27;2.42;;;10.70;99.80;;;;;;4995425;28;20188;-71
2022/03/19 11:17:56;;;;;;;12.40;3.60;;;10.80;99.50;;;;;;4978342;28;20065;-69
2022/03/19 11:20:21;;;;;;;15.80;6.13;;;10.80;99.90;;;;;;4996154;28;20046;-71
2022/03/19 11:22:54;;;;;;;17.25;5.97;;;10.90;99.40;;;;;;4978756;28;20124;-69
2022/03/19 11:25:25;;;;;;;48.92;19.40;;;11.10;98.60;;;;;;4995592;28;20054;-72
2022/03/19 11:27:54;;;;;;;27.38;9.52;;;11.20;97.70;;;;;;4995685;28;20048;-70
2022/03/19 11:30:24;;;;;;;62.83;28.30;;;11.20;98.80;;;;;;4995410;28;20069;-72
2022/03/19 11:33:20;;;;;;;23.75;10.48;;;11.30;99.10;;;;;;5009328;28;20049;-72
2022/03/19 11:35:56;;;;;;;9.45;3.80;;;11.30;97.90;;;;;;5006600;28;20462;-70
2022/03/19 11:38:23;;;;;;;7.85;2.90;;;11.40;97.90;;;;;;5014974;28;20050;-71
2022/03/19 11:40:54;;;;;;;13.13;4.57;;;11.50;98.50;;;;;;4997251;28;20057;-70
2022/03/19 11:43:35;;;;;;;11.15;4.75;;;11.60;96.90;;;;;;5003566;28;20348;-68
2022/03/19 11:46:04;;;;;;;7.75;3.53;;;11.70;94.90;;;;;;4999853;28;20108;-70
2022/03/19 11:48:36;;;;;;;12.38;4.43;;;11.60;96.00;;;;;;5001282;28;20488;-68
2022/03/19 11:51:28;;;;;;;17.02;6.80;;;11.60;96.80;;;;;;4981779;28;20050;-69
2022/03/19 11:53:59;;;;;;;12.38;4.65;;;11.70;96.90;;;;;;5001766;28;20475;-70
2022/03/19 11:56:45;;;;;;;10.18;4.78;;;11.70;95.60;;;;;;5004307;28;20053;-69
2022/03/19 11:59:43;;;;;;;10.88;4.30;;;11.70;96.50;;;;;;5006079;28;20046;-66
2022/03/19 12:02:10;;;;;;;9.20;2.60;;;11.70;95.70;;;;;;5008323;28;20068;-67
2022/03/19 12:04:52;;;;;;;10.10;4.82;;;11.90;96.20;;;;;;5015043;28;20085;-67
2022/03/19 12:07:41;;;;;;;7.65;2.22;;;11.90;94.80;;;;;;4997464;28;20115;-72
2022/03/19 12:10:12;;;;;;;12.38;2.08;;;11.90;94.10;;;;;;5014891;28;20049;-71
2022/03/19 12:12:40;;;;;;;5.47;1.50;;;12.00;94.10;;;;;;4998220;28;20046;-70
2022/03/19 12:15:33;;;;;;;2.78;1.42;;;12.10;88.80;;;;;;5015339;28;20042;-71
2022/03/19 12:18:28;;;;;;;4.88;1.90;;;11.80;85.20;;;;;;5018644;28;20455;-70
2022/03/19 12:21:03;;;;;;;5.40;2.08;;;11.90;91.70;;;;;;5000923;28;20050;-70
2022/03/19 12:23:42;;;;;;;5.47;1.80;;;12.00;88.40;;;;;;5018458;28;20088;-72
2022/03/19 12:26:10;;;;;;;4.35;1.70;;;12.00;91.50;;;;;;5018653;28;20127;-72
2022/03/19 12:28:37;;;;;;;6.57;2.42;;;12.20;88.70;;;;;;5005263;28;20038;-71
2022/03/19 12:31:03;;;;;;;6.18;2.13;;;12.20;87.60;;;;;;5008374;28;20045;-72
2022/03/19 12:33:31;;;;;;;7.25;3.17;;;12.30;87.40;;;;;;5009669;28;20077;-73
2022/03/19 12:35:58;;;;;;;7.57;2.60;;;12.30;85.60;;;;;;5001520;28;20129;-73
2022/03/19 12:38:27;;;;;;;3.45;1.42;;;12.40;89.20;;;;;;5006607;28;20104;-73
2022/03/19 12:43:38;;;;;;;4.72;1.80;;;12.40;80.50;;;;;;4998231;28;20137;-73
2022/03/19 12:46:05;;;;;;;7.03;1.80;;;12.30;78.10;;;;;;4998328;28;20129;-72
2022/03/19 12:48:32;;;;;;;5.80;1.60;;;12.30;80.30;;;;;;4981967;28;20050;-74
2022/03/19 12:50:58;;;;;;;5.72;2.53;;;12.30;80.00;;;;;;4998304;28;20574;-74
2022/03/19 12:53:38;;;;;;;5.53;1.80;;;12.50;78.20;;;;;;4981577;28;20065;-74
2022/03/19 12:56:16;;;;;;;6.60;1.55;;;12.50;80.00;;;;;;4998159;28;20050;-74
2022/03/19 12:58:45;;;;;;;6.00;1.80;;;12.50;79.80;;;;;;4998121;28;20042;-74
2022/03/19 13:01:15;;;;;;;6.05;1.70;;;12.50;77.80;;;;;;4999845;28;20050;-74
2022/03/19 13:03:41;;;;;;;7.90;1.73;;;12.50;76.40;;;;;;4998515;28;20046;-72
2022/03/19 13:06:09;;;;;;;7.25;1.80;;;12.50;73.90;;;;;;5017522;28;20054;-73
2022/03/19 13:08:44;;;;;;;4.40;1.98;;;12.50;75.30;;;;;;5017919;28;20042;-74